Time;durP1;ratioP1;P1;durP2;ratioP2;P2;SDS_P1;SDS_P2;PMS_P1;PMS_P2;Temp;Humidity;BMP_temperature;BMP_pressure;BME280_temperature;BME280_humidity;BME280_pressure;Samples;Min_cycle;Max_cycle;Signal;HPM_P1;HPM_P2
2021/05/15 00:01:36;;;;;;;;;;;;;;;;;;4986661;28;20037;-75
2021/05/15 00:04:02;;;;;;;0.50;0.50;;;;;;;;;;4985311;28;20329;-76
2021/05/15 00:06:28;;;;;;;0.50;0.50;;;;;;;;;;4986427;28;20073;-76
2021/05/15 00:08:53;;;;;;;0.60;0.60;;;;;;;;;;4983578;28;20156;-75
2021/05/15 00:11:19;;;;;;;0.50;0.50;;;;;;;;;;4985627;28;20042;-75
2021/05/15 00:13:44;;;;;;;0.80;0.80;;;;;;;;;;5000117;28;20026;-76
2021/05/15 00:16:10;;;;;;;0.60;0.60;;;;;;;;;;5004006;28;20377;-76
2021/05/15 00:18:35;;;;;;;0.60;0.60;;;;;;;;;;5004149;28;20030;-76
2021/05/15 00:21:00;;;;;;;0.60;0.60;;;;;;;;;;4989751;28;20034;-76
2021/05/15 00:23:26;;;;;;;0.70;0.70;;;;;;;;;;4987686;28;20030;-75
2021/05/15 00:25:51;;;;;;;0.70;0.70;;;;;;;;;;4986876;28;20535;-75
2021/05/15 00:28:16;;;;;;;0.60;0.60;;;;;;;;;;5004376;28;20025;-76
2021/05/15 00:30:41;;;;;;;0.50;0.50;;;;;;;;;;4987872;28;20536;-75
2021/05/15 00:33:07;;;;;;;0.50;0.50;;;;;;;;;;4988333;28;20677;-76
2021/05/15 00:35:32;;;;;;;0.50;0.50;;;;;;;;;;4983461;28;20592;-75
2021/05/15 00:37:57;;;;;;;0.50;0.50;;;;;;;;;;4974028;28;20448;-76
2021/05/15 00:40:25;;;;;;;0.52;0.52;;;;;;;;;;4976592;28;20026;-76
2021/05/15 00:42:50;;;;;;;;;;;;;;;;;;4987168;28;20477;-76
2021/05/15 00:45:16;;;;;;;0.50;0.50;;;;;;;;;;4985750;28;19914;-76
2021/05/15 00:47:42;;;;;;;0.60;0.60;;;;;;;;;;4968314;28;20499;-76
2021/05/15 00:50:07;;;;;;;0.50;0.50;;;;;;;;;;4969548;28;20031;-76
2021/05/15 00:52:36;;;;;;;0.88;0.88;;;;;;;;;;5001708;28;20031;-75
2021/05/15 00:55:08;;;;;;;0.70;0.70;;;;;;;;;;4985864;28;20128;-75
2021/05/15 00:57:34;;;;;;;0.70;0.70;;;;;;;;;;4980847;28;20026;-75
2021/05/15 00:59:59;;;;;;;0.60;0.60;;;;;;;;;;4989373;28;20026;-75
2021/05/15 01:02:24;;;;;;;0.70;0.70;;;;;;;;;;4997514;28;20172;-76
2021/05/15 01:04:49;;;;;;;0.60;0.60;;;;;;;;;;4984446;28;20026;-74
2021/05/15 01:07:15;;;;;;;0.70;0.70;;;;;;;;;;4986096;28;20362;-75
2021/05/15 01:09:42;;;;;;;0.60;0.60;;;;;;;;;;4987620;28;20033;-75
2021/05/15 01:12:08;;;;;;;0.50;0.50;;;;;;;;;;4987788;28;20030;-75
2021/05/15 01:14:37;;;;;;;0.55;0.55;;;;;;;;;;4971817;28;20054;-75
2021/05/15 01:17:02;;;;;;;0.60;0.60;;;;;;;;;;4974360;28;20082;-75
2021/05/15 01:19:28;;;;;;;0.60;0.60;;;;;;;;;;4989453;28;20030;-75
2021/05/15 01:21:53;;;;;;;0.80;0.80;;;;;;;;;;4989407;28;20026;-75
2021/05/15 01:24:18;;;;;;;0.80;0.80;;;;;;;;;;5016893;28;20495;-76
2021/05/15 01:26:44;;;;;;;0.80;0.80;;;;;;;;;;4992889;28;20535;-75
2021/05/15 01:29:09;;;;;;;0.90;0.90;;;;;;;;;;4984093;28;20410;-75
2021/05/15 01:31:35;;;;;;;0.75;0.75;;;;;;;;;;4993158;28;20121;-75
2021/05/15 01:34:02;;;;;;;0.70;0.70;;;;;;;;;;4996046;28;20026;-75
2021/05/15 01:36:28;;;;;;;0.80;0.80;;;;;;;;;;5005912;28;20037;-75
2021/05/15 01:38:53;;;;;;;0.70;0.70;;;;;;;;;;4990302;28;20287;-74
2021/05/15 01:41:19;;;;;;;0.98;0.98;;;;;;;;;;4976226;28;20093;-74
2021/05/15 01:43:45;;;;;;;0.70;0.70;;;;;;;;;;4987604;28;20030;-75
2021/05/15 01:46:13;;;;;;;0.70;0.70;;;;;;;;;;4990486;28;20053;-74
2021/05/15 01:48:39;;;;;;;0.70;0.70;;;;;;;;;;4991831;28;20586;-74
2021/05/15 01:51:05;;;;;;;1.00;1.00;;;;;;;;;;4992598;28;20050;-74
2021/05/15 01:53:33;;;;;;;0.90;0.90;;;;;;;;;;4991679;28;20443;-75
2021/05/15 01:55:59;;;;;;;0.88;0.88;;;;;;;;;;4990810;28;20029;-75
2021/05/15 01:58:25;;;;;;;0.65;0.65;;;;;;;;;;5010282;28;20030;-74
2021/05/15 02:00:51;;;;;;;0.90;0.90;;;;;;;;;;4974326;28;20037;-75
2021/05/15 02:03:16;;;;;;;0.90;0.90;;;;;;;;;;4989005;28;20037;-75
2021/05/15 02:05:41;;;;;;;0.77;0.77;;;;;;;;;;4989916;28;20054;-75
2021/05/15 02:08:10;;;;;;;0.70;0.70;;;;;;;;;;4992036;28;20030;-74
2021/05/15 02:10:36;;;;;;;0.70;0.70;;;;;;;;;;4985127;28;20018;-75
2021/05/15 02:13:01;;;;;;;0.60;0.60;;;;;;;;;;4971465;28;20027;-74
2021/05/15 02:15:27;;;;;;;0.60;0.60;;;;;;;;;;4988069;28;20038;-76
2021/05/15 02:17:52;;;;;;;0.70;0.70;;;;;;;;;;5006829;28;20724;-76
2021/05/15 02:20:17;;;;;;;0.70;0.70;;;;;;;;;;4990145;28;20621;-74
2021/05/15 02:22:42;;;;;;;0.70;0.70;;;;;;;;;;5006597;28;20080;-74
2021/05/15 02:25:08;;;;;;;0.70;0.70;;;;;;;;;;4989955;28;20029;-75
2021/05/15 02:27:33;;;;;;;0.80;0.80;;;;;;;;;;4973202;28;20027;-75
2021/05/15 02:29:58;;;;;;;0.80;0.80;;;;;;;;;;4991623;28;20026;-75
2021/05/15 02:32:24;;;;;;;0.60;0.60;;;;;;;;;;4990595;28;20052;-75
2021/05/15 02:34:49;;;;;;;0.60;0.60;;;;;;;;;;4987298;28;20068;-75
2021/05/15 02:37:14;;;;;;;0.70;0.70;;;;;;;;;;4990133;28;20510;-75
2021/05/15 02:39:40;;;;;;;0.60;0.60;;;;;;;;;;4988613;28;20033;-75
2021/05/15 02:42:05;;;;;;;0.85;0.85;;;;;;;;;;4991122;28;20034;-75
2021/05/15 02:44:30;;;;;;;0.60;0.60;;;;;;;;;;4990658;28;20018;-75
2021/05/15 02:46:55;;;;;;;0.57;0.57;;;;;;;;;;4990328;28;20524;-75
2021/05/15 02:49:21;;;;;;;0.60;0.60;;;;;;;;;;4990897;28;20114;-75
2021/05/15 02:51:46;;;;;;;0.60;0.60;;;;;;;;;;4984552;28;20016;-75
2021/05/15 02:54:11;;;;;;;0.63;0.63;;;;;;;;;;4995091;28;20030;-75
2021/05/15 02:56:39;;;;;;;0.60;0.60;;;;;;;;;;4993332;28;20448;-75
2021/05/15 02:59:04;;;;;;;;;;;;;;;;;;4990725;28;20252;-75
2021/05/15 03:01:30;;;;;;;0.70;0.70;;;;;;;;;;4989336;28;20336;-75
2021/05/15 03:03:55;;;;;;;0.60;0.60;;;;;;;;;;4989602;28;20030;-75
2021/05/15 03:06:20;;;;;;;0.60;0.60;;;;;;;;;;4990931;28;20022;-75
2021/05/15 03:08:45;;;;;;;0.63;0.63;;;;;;;;;;4990390;28;20461;-75
2021/05/15 03:11:11;;;;;;;0.80;0.80;;;;;;;;;;4989325;28;20026;-75
2021/05/15 03:13:36;;;;;;;0.60;0.60;;;;;;;;;;4989166;28;20192;-75
2021/05/15 03:16:01;;;;;;;0.60;0.60;;;;;;;;;;4980844;28;20031;-75
2021/05/15 03:18:26;;;;;;;0.60;0.60;;;;;;;;;;4986600;28;20081;-75
2021/05/15 03:20:55;;;;;;;0.80;0.80;;;;;;;;;;4978710;28;20026;-75
2021/05/15 03:23:20;;;;;;;0.60;0.60;;;;;;;;;;4973775;28;20117;-75
2021/05/15 03:25:46;;;;;;;0.60;0.60;;;;;;;;;;4975945;28;20101;-75
2021/05/15 03:28:14;;;;;;;0.77;0.77;;;;;;;;;;4987010;28;20046;-75
2021/05/15 03:30:39;;;;;;;0.68;0.68;;;;;;;;;;4975714;28;20022;-75
2021/05/15 03:33:04;;;;;;;0.70;0.70;;;;;;;;;;4983413;28;20022;-75
2021/05/15 03:35:31;;;;;;;0.70;0.70;;;;;;;;;;5015664;28;20574;-75
2021/05/15 03:37:56;;;;;;;0.75;0.75;;;;;;;;;;4987568;28;20034;-75
2021/05/15 03:40:22;;;;;;;0.70;0.70;;;;;;;;;;4987603;28;20079;-75
2021/05/15 03:42:48;;;;;;;0.60;0.60;;;;;;;;;;4968502;28;20019;-75
2021/05/15 03:45:14;;;;;;;0.70;0.70;;;;;;;;;;4975195;28;20597;-75
2021/05/15 03:47:42;;;;;;;0.60;0.60;;;;;;;;;;4985623;28;20018;-75
2021/05/15 03:50:08;;;;;;;0.60;0.60;;;;;;;;;;4990533;28;20054;-75
2021/05/15 03:52:33;;;;;;;0.80;0.80;;;;;;;;;;5005038;28;20049;-75
2021/05/15 03:55:03;;;;;;;0.70;0.70;;;;;;;;;;4990102;28;20033;-75
2021/05/15 03:57:28;;;;;;;0.70;0.70;;;;;;;;;;4987944;28;20030;-75
2021/05/15 03:59:53;;;;;;;0.70;0.70;;;;;;;;;;4989408;28;20026;-76
2021/05/15 04:02:22;;;;;;;0.70;0.70;;;;;;;;;;4983943;28;20033;-75
2021/05/15 04:04:50;;;;;;;0.73;0.73;;;;;;;;;;4970305;28;20035;-76
2021/05/15 04:07:16;;;;;;;0.73;0.73;;;;;;;;;;4974278;28;20148;-75
2021/05/15 04:09:41;;;;;;;0.70;0.70;;;;;;;;;;4988149;28;20038;-75
2021/05/15 04:12:06;;;;;;;0.70;0.70;;;;;;;;;;4986937;28;20031;-75
2021/05/15 04:14:42;;;;;;;0.70;0.70;;;;;;;;;;4987720;28;20029;-76
2021/05/15 04:19:33;;;;;;;0.70;0.70;;;;;;;;;;4990390;28;20480;-74
2021/05/15 04:21:59;;;;;;;0.70;0.70;;;;;;;;;;4985901;28;20029;-75
2021/05/15 04:24:25;;;;;;;0.70;0.70;;;;;;;;;;4970469;28;20023;-74
2021/05/15 04:26:55;;;;;;;0.80;0.80;;;;;;;;;;4976509;28;20047;-74
2021/05/15 04:29:21;;;;;;;0.70;0.70;;;;;;;;;;4972238;28;20030;-74
2021/05/15 04:31:46;;;;;;;0.70;0.70;;;;;;;;;;4984596;28;20026;-74
2021/05/15 04:34:11;;;;;;;0.73;0.73;;;;;;;;;;4986668;28;20037;-74
2021/05/15 04:36:37;;;;;;;0.77;0.77;;;;;;;;;;4974518;28;20109;-74
2021/05/15 04:39:03;;;;;;;0.70;0.70;;;;;;;;;;4988126;28;20092;-75
2021/05/15 04:41:28;;;;;;;0.70;0.70;;;;;;;;;;5003507;28;20038;-74
2021/05/15 04:43:56;;;;;;;0.60;0.60;;;;;;;;;;4980469;28;20412;-75
2021/05/15 04:46:21;;;;;;;0.70;0.70;;;;;;;;;;4988251;28;20077;-75
2021/05/15 04:48:46;;;;;;;0.70;0.70;;;;;;;;;;4987302;28;20026;-75
2021/05/15 04:51:11;;;;;;;0.70;0.70;;;;;;;;;;4988941;28;20026;-75
2021/05/15 04:53:37;;;;;;;0.70;0.70;;;;;;;;;;4986900;28;20023;-75
2021/05/15 04:56:02;;;;;;;0.70;0.70;;;;;;;;;;4986811;28;20018;-75
2021/05/15 04:58:28;;;;;;;0.70;0.70;;;;;;;;;;4988409;28;20034;-75
2021/05/15 05:00:53;;;;;;;0.80;0.80;;;;;;;;;;4981214;28;20027;-75
2021/05/15 05:03:21;;;;;;;0.70;0.70;;;;;;;;;;4987840;28;20022;-75
2021/05/15 05:05:46;;;;;;;;;;;;;;;;;;4987106;28;20105;-75
2021/05/15 05:08:11;;;;;;;0.70;0.70;;;;;;;;;;4988149;28;20000;-76
2021/05/15 05:10:36;;;;;;;0.70;0.70;;;;;;;;;;4979737;28;20046;-76
2021/05/15 05:13:03;;;;;;;0.90;0.90;;;;;;;;;;4985209;28;20105;-76
2021/05/15 05:15:28;;;;;;;0.80;0.80;;;;;;;;;;5004119;28;20049;-76
2021/05/15 05:17:53;;;;;;;0.80;0.80;;;;;;;;;;4985689;28;20030;-75
2021/05/15 05:20:18;;;;;;;0.70;0.70;;;;;;;;;;4970467;28;20031;-76
2021/05/15 05:22:44;;;;;;;0.75;0.75;;;;;;;;;;4984600;28;20053;-76
2021/05/15 05:25:12;;;;;;;0.70;0.70;;;;;;;;;;4987961;28;20023;-76
2021/05/15 05:27:37;;;;;;;0.70;0.70;;;;;;;;;;4987474;28;20038;-76
2021/05/15 05:30:02;;;;;;;0.63;0.63;;;;;;;;;;4979868;28;20049;-76
2021/05/15 05:32:28;;;;;;;0.70;0.70;;;;;;;;;;4985176;28;20027;-76
2021/05/15 05:34:53;;;;;;;0.60;0.60;;;;;;;;;;4996433;28;20030;-77
2021/05/15 05:37:18;;;;;;;0.70;0.70;;;;;;;;;;4988087;28;20457;-76
2021/05/15 05:39:43;;;;;;;0.60;0.60;;;;;;;;;;4972507;28;20277;-76
2021/05/15 05:42:09;;;;;;;0.70;0.70;;;;;;;;;;4989507;28;20038;-76
2021/05/15 05:44:34;;;;;;;0.70;0.70;;;;;;;;;;4986528;28;20045;-76
2021/05/15 05:46:59;;;;;;;0.60;0.60;;;;;;;;;;4981256;28;20022;-75
2021/05/15 05:49:24;;;;;;;0.60;0.60;;;;;;;;;;4984113;28;20030;-76
2021/05/15 05:51:49;;;;;;;0.60;0.60;;;;;;;;;;4990686;28;20015;-75
2021/05/15 05:54:15;;;;;;;0.60;0.60;;;;;;;;;;4988811;28;20061;-75
2021/05/15 05:56:40;;;;;;;0.50;0.50;;;;;;;;;;4986217;28;20403;-76
2021/05/15 05:59:05;;;;;;;0.50;0.50;;;;;;;;;;4982192;28;20398;-76
2021/05/15 06:01:31;;;;;;;0.60;0.60;;;;;;;;;;4985978;28;20030;-75
2021/05/15 06:03:56;;;;;;;0.50;0.50;;;;;;;;;;4978769;28;20054;-76
2021/05/15 06:06:21;;;;;;;0.50;0.50;;;;;;;;;;4987935;28;20026;-77
2021/05/15 06:08:46;;;;;;;0.60;0.60;;;;;;;;;;4989627;28;20466;-77
2021/05/15 06:11:12;;;;;;;0.50;0.50;;;;;;;;;;4991529;28;20034;-76
2021/05/15 06:13:38;;;;;;;0.50;0.50;;;;;;;;;;4983803;28;20173;-76
2021/05/15 06:16:03;;;;;;;0.50;0.50;;;;;;;;;;4998421;28;20650;-76
2021/05/15 06:18:29;;;;;;;0.52;0.52;;;;;;;;;;4992095;28;20026;-76
2021/05/15 06:20:54;;;;;;;0.47;0.47;;;;;;;;;;4978587;28;20109;-76
2021/05/15 06:23:19;;;;;;;0.55;0.55;;;;;;;;;;4991067;28;20034;-76
2021/05/15 06:25:47;;;;;;;0.55;0.55;;;;;;;;;;4992721;28;20472;-75
2021/05/15 06:28:13;;;;;;;0.50;0.50;;;;;;;;;;4989238;28;20124;-77
2021/05/15 06:30:38;;;;;;;0.50;0.50;;;;;;;;;;4991980;28;20157;-77
2021/05/15 06:33:04;;;;;;;0.50;0.50;;;;;;;;;;4989833;28;20131;-76
2021/05/15 06:35:32;;;;;;;0.40;0.40;;;;;;;;;;5005577;28;20062;-76
2021/05/15 06:37:58;;;;;;;0.50;0.50;;;;;;;;;;4981905;28;20022;-77
2021/05/15 06:40:23;;;;;;;0.50;0.50;;;;;;;;;;4980675;28;20098;-77
2021/05/15 06:42:48;;;;;;;0.50;0.50;;;;;;;;;;5005541;28;20041;-76
2021/05/15 06:45:15;;;;;;;0.40;0.40;;;;;;;;;;4991928;28;20476;-76
2021/05/15 06:47:41;;;;;;;0.40;0.40;;;;;;;;;;4990302;28;20136;-76
2021/05/15 06:50:08;;;;;;;0.40;0.40;;;;;;;;;;4974677;28;20121;-76
2021/05/15 06:52:33;;;;;;;;;;;;;;;;;;4977855;28;20064;-76
2021/05/15 06:54:59;;;;;;;0.40;0.40;;;;;;;;;;5004746;28;19913;-76
2021/05/15 06:57:24;;;;;;;0.50;0.50;;;;;;;;;;4989124;28;20030;-75
2021/05/15 06:59:50;;;;;;;0.40;0.40;;;;;;;;;;5004694;28;20033;-77
2021/05/15 07:02:17;;;;;;;0.40;0.40;;;;;;;;;;4983697;28;20095;-77
2021/05/15 07:04:43;;;;;;;0.40;0.40;;;;;;;;;;4982035;28;20030;-76
2021/05/15 07:07:08;;;;;;;0.40;0.40;;;;;;;;;;4995569;28;20026;-76
2021/05/15 07:09:33;;;;;;;0.40;0.40;;;;;;;;;;5006389;28;20023;-76
2021/05/15 07:11:58;;;;;;;0.30;0.30;;;;;;;;;;5005088;28;20140;-76
2021/05/15 07:14:24;;;;;;;0.40;0.40;;;;;;;;;;4991338;28;20025;-76
2021/05/15 07:16:49;;;;;;;0.40;0.40;;;;;;;;;;4989652;28;20023;-76
2021/05/15 07:19:15;;;;;;;0.30;0.30;;;;;;;;;;4990963;28;20037;-77
2021/05/15 07:21:43;;;;;;;0.30;0.30;;;;;;;;;;4988740;28;20464;-76
2021/05/15 07:24:11;;;;;;;0.40;0.40;;;;;;;;;;4998125;28;20038;-77
2021/05/15 07:26:36;;;;;;;0.30;0.30;;;;;;;;;;5009900;28;20056;-76
2021/05/15 07:29:01;;;;;;;0.30;0.30;;;;;;;;;;4989176;28;20058;-76
2021/05/15 07:31:27;;;;;;;0.30;0.30;;;;;;;;;;4995745;28;20391;-76
2021/05/15 07:33:52;;;;;;;0.40;0.40;;;;;;;;;;5003396;28;20097;-76
2021/05/15 07:36:17;;;;;;;0.30;0.30;;;;;;;;;;4989321;28;20125;-76
2021/05/15 07:38:43;;;;;;;0.32;0.32;;;;;;;;;;4986378;28;20656;-76
2021/05/15 07:41:08;;;;;;;0.43;0.43;;;;;;;;;;4987979;28;20039;-76
2021/05/15 07:43:35;;;;;;;0.40;0.40;;;;;;;;;;4977971;28;20047;-76
2021/05/15 07:46:00;;;;;;;0.40;0.40;;;;;;;;;;4977610;28;20050;-76
2021/05/15 07:48:37;;;;;;;0.30;0.30;;;;;;;;;;4965738;28;20093;-77
2021/05/15 07:51:03;;;;;;;0.30;0.30;;;;;;;;;;4982881;28;20048;-76
2021/05/15 07:53:29;;;;;;;0.30;0.30;;;;;;;;;;4979231;28;20043;-76
2021/05/15 07:55:54;;;;;;;0.38;0.38;;;;;;;;;;4989607;28;20542;-75
2021/05/15 07:58:19;;;;;;;0.40;0.40;;;;;;;;;;4985035;28;20503;-77
2021/05/15 08:00:44;;;;;;;0.30;0.30;;;;;;;;;;4967621;28;20067;-77
2021/05/15 08:03:10;;;;;;;0.30;0.30;;;;;;;;;;4985841;28;20054;-77
2021/05/15 08:05:35;;;;;;;0.30;0.30;;;;;;;;;;4985346;28;20046;-74
2021/05/15 08:08:02;;;;;;;0.30;0.30;;;;;;;;;;4985280;28;20045;-75
2021/05/15 08:10:27;;;;;;;0.30;0.30;;;;;;;;;;4987617;28;20038;-77
2021/05/15 08:12:53;;;;;;;0.30;0.30;;;;;;;;;;4986329;28;20088;-75
2021/05/15 08:15:18;;;;;;;1.75;0.80;;;;;;;;;;4985611;28;20042;-75
2021/05/15 08:17:43;;;;;;;0.30;0.30;;;;;;;;;;5000087;28;20117;-76
2021/05/15 08:20:08;;;;;;;0.30;0.30;;;;;;;;;;4982734;28;20065;-77
2021/05/15 08:22:34;;;;;;;0.30;0.30;;;;;;;;;;4986818;28;20030;-77
2021/05/15 08:24:59;;;;;;;0.30;0.30;;;;;;;;;;4989875;28;20057;-76
2021/05/15 08:27:24;;;;;;;0.30;0.30;;;;;;;;;;4988676;28;20046;-78
2021/05/15 08:29:50;;;;;;;0.30;0.30;;;;;;;;;;4985933;28;20414;-77
2021/05/15 08:32:16;;;;;;;0.20;0.20;;;;;;;;;;4976066;28;20062;-77
2021/05/15 08:34:41;;;;;;;0.30;0.30;;;;;;;;;;4992596;28;20073;-75
2021/05/15 08:37:07;;;;;;;0.30;0.30;;;;;;;;;;5000673;28;20503;-79
2021/05/15 08:39:32;;;;;;;0.20;0.20;;;;;;;;;;4967974;28;20031;-77
2021/05/15 08:41:59;;;;;;;0.30;0.30;;;;;;;;;;4991625;28;20106;-76
2021/05/15 08:44:25;;;;;;;;;;;;;;;;;;4984132;28;20050;-77
2021/05/15 08:46:54;;;;;;;0.30;0.30;;;;;;;;;;4982460;28;19914;-76
2021/05/15 08:49:22;;;;;;;0.30;0.30;;;;;;;;;;5015059;28;20260;-77
2021/05/15 08:51:49;;;;;;;0.35;0.30;;;;;;;;;;4979354;28;20391;-75
2021/05/15 08:54:15;;;;;;;0.37;0.37;;;;;;;;;;4968227;28;20480;-77
2021/05/15 08:56:40;;;;;;;0.20;0.20;;;;;;;;;;4967804;28;20093;-77
2021/05/15 08:59:08;;;;;;;0.28;0.28;;;;;;;;;;4967851;28;20129;-77
2021/05/15 09:01:34;;;;;;;0.30;0.30;;;;;;;;;;4981410;28;20050;-78
2021/05/15 09:03:59;;;;;;;0.30;0.30;;;;;;;;;;4986863;28;20042;-76
2021/05/15 09:06:24;;;;;;;0.30;0.30;;;;;;;;;;4993743;28;20044;-76
2021/05/15 09:08:50;;;;;;;0.30;0.30;;;;;;;;;;5021718;28;20057;-76
2021/05/15 09:11:15;;;;;;;0.30;0.30;;;;;;;;;;5038757;28;20124;-75
2021/05/15 09:13:49;;;;;;;0.30;0.30;;;;;;;;;;4979073;28;20035;-76
2021/05/15 09:16:19;;;;;;;0.30;0.30;;;;;;;;;;4965931;28;20118;-76
2021/05/15 09:18:44;;;;;;;0.30;0.30;;;;;;;;;;4966943;28;20139;-76
2021/05/15 09:21:13;;;;;;;0.30;0.30;;;;;;;;;;4969448;28;20151;-76
2021/05/15 09:23:44;;;;;;;0.20;0.20;;;;;;;;;;4987024;28;20042;-77
2021/05/15 09:26:10;;;;;;;0.25;0.25;;;;;;;;;;4997162;28;20626;-77
2021/05/15 09:28:37;;;;;;;0.20;0.20;;;;;;;;;;4988188;28;20742;-76
2021/05/15 09:31:28;;;;;;;0.20;0.20;;;;;;;;;;4985719;28;20294;-76
2021/05/15 09:33:58;;;;;;;0.30;0.30;;;;;;;;;;4985640;28;20049;-75
2021/05/15 09:36:33;;;;;;;0.30;0.30;;;;;;;;;;4985947;28;20459;-76
2021/05/15 09:39:12;;;;;;;0.30;0.30;;;;;;;;;;4981316;28;20077;-76
2021/05/15 09:41:49;;;;;;;0.30;0.30;;;;;;;;;;4977664;28;20046;-75
2021/05/15 09:44:21;;;;;;;0.30;0.30;;;;;;;;;;4999289;28;20452;-78
2021/05/15 09:46:47;;;;;;;0.30;0.30;;;;;;;;;;4988161;28;20445;-77
2021/05/15 09:49:13;;;;;;;0.30;0.30;;;;;;;;;;4977440;28;20063;-76
2021/05/15 09:51:39;;;;;;;0.20;0.20;;;;;;;;;;5002716;28;20054;-77
2021/05/15 09:54:14;;;;;;;0.20;0.20;;;;;;;;;;4990818;28;20380;-77
2021/05/15 09:56:39;;;;;;;0.30;0.30;;;;;;;;;;4988154;28;20038;-79
2021/05/15 09:59:04;;;;;;;0.28;0.28;;;;;;;;;;5000846;28;20096;-77
2021/05/15 10:01:45;;;;;;;0.20;0.20;;;;;;;;;;5009614;28;20515;-76
2021/05/15 10:04:11;;;;;;;1.75;0.30;;;;;;;;;;5023895;28;20233;-77
2021/05/15 10:06:37;;;;;;;0.30;0.30;;;;;;;;;;5007796;28;20152;-76
2021/05/15 10:09:02;;;;;;;0.20;0.20;;;;;;;;;;4996483;28;20034;-76
2021/05/15 10:11:28;;;;;;;0.20;0.20;;;;;;;;;;4989655;28;20042;-76
2021/05/15 10:13:53;;;;;;;0.30;0.30;;;;;;;;;;4995805;28;20038;-76
2021/05/15 10:16:19;;;;;;;0.28;0.28;;;;;;;;;;4993565;28;20065;-77
2021/05/15 10:18:44;;;;;;;0.30;0.30;;;;;;;;;;4986567;28;20125;-76
2021/05/15 10:21:09;;;;;;;0.20;0.20;;;;;;;;;;4982701;28;20049;-74
2021/05/15 10:23:34;;;;;;;0.20;0.20;;;;;;;;;;4986520;28;20496;-74
2021/05/15 10:26:07;;;;;;;0.27;0.27;;;;;;;;;;5003743;28;20042;-76
2021/05/15 10:28:34;;;;;;;0.30;0.30;;;;;;;;;;4995446;28;20302;-75
2021/05/15 10:31:18;;;;;;;0.30;0.30;;;;;;;;;;4986576;28;20050;-76
2021/05/15 10:33:46;;;;;;;0.30;0.30;;;;;;;;;;5002514;28;20095;-77
2021/05/15 10:36:18;;;;;;;0.30;0.30;;;;;;;;;;4986630;28;20049;-76
2021/05/15 10:38:44;;;;;;;0.20;0.20;;;;;;;;;;4982277;28;20054;-75
2021/05/15 10:41:17;;;;;;;0.20;0.20;;;;;;;;;;4989199;28;20046;-77
2021/05/15 10:43:43;;;;;;;0.30;0.30;;;;;;;;;;4987555;28;20049;-76
2021/05/15 10:46:28;;;;;;;0.20;0.20;;;;;;;;;;5006756;28;20056;-74
2021/05/15 10:49:16;;;;;;;0.20;0.20;;;;;;;;;;4997498;28;20106;-77
2021/05/15 10:51:50;;;;;;;0.20;0.20;;;;;;;;;;5023514;28;20035;-75
2021/05/15 10:54:32;;;;;;;0.30;0.30;;;;;;;;;;5025615;28;20137;-75
2021/05/15 10:57:11;;;;;;;0.30;0.30;;;;;;;;;;4993314;28;20038;-73
2021/05/15 10:59:37;;;;;;;0.20;0.20;;;;;;;;;;4989311;28;20038;-75
2021/05/15 11:02:10;;;;;;;0.30;0.30;;;;;;;;;;4988347;28;20048;-75
2021/05/15 11:04:53;;;;;;;0.20;0.20;;;;;;;;;;4988446;28;20129;-74
2021/05/15 11:07:20;;;;;;;0.30;0.30;;;;;;;;;;4984288;28;20453;-75
2021/05/15 11:09:55;;;;;;;0.30;0.30;;;;;;;;;;4987866;28;20042;-75
2021/05/15 11:12:24;;;;;;;0.30;0.30;;;;;;;;;;4986487;28;20074;-75
2021/05/15 11:14:51;;;;;;;0.40;0.40;;;;;;;;;;4987312;28;20035;-75
2021/05/15 11:17:21;;;;;;;0.38;0.38;;;;;;;;;;4987620;28;20042;-75
2021/05/15 11:20:01;;;;;;;0.30;0.30;;;;;;;;;;4986745;28;20065;-76
2021/05/15 11:22:53;;;;;;;0.30;0.30;;;;;;;;;;4987841;28;20131;-76
2021/05/15 11:25:24;;;;;;;0.30;0.30;;;;;;;;;;4987097;28;20089;-75
2021/05/15 11:27:56;;;;;;;0.40;0.40;;;;;;;;;;4988798;28;20034;-75
2021/05/15 11:30:28;;;;;;;0.20;0.20;;;;;;;;;;4987514;28;20038;-76
2021/05/15 11:33:04;;;;;;;0.20;0.20;;;;;;;;;;4983463;28;20038;-76
2021/05/15 11:35:31;;;;;;;0.15;0.15;;;;;;;;;;4995660;28;20096;-75
2021/05/15 11:38:06;;;;;;;0.10;0.10;;;;;;;;;;5002040;28;20200;-75
2021/05/15 11:40:33;;;;;;;0.20;0.20;;;;;;;;;;5007208;28;20052;-73
2021/05/15 11:42:58;;;;;;;0.20;0.20;;;;;;;;;;4966160;28;20039;-74
2021/05/15 11:45:24;;;;;;;0.13;0.13;;;;;;;;;;4983671;28;20115;-74
2021/05/15 11:47:49;;;;;;;0.10;0.10;;;;;;;;;;4984269;28;20041;-75
2021/05/15 11:50:15;;;;;;;0.20;0.20;;;;;;;;;;4998982;28;20042;-76
2021/05/15 11:52:42;;;;;;;0.25;0.25;;;;;;;;;;4999093;28;20125;-74
2021/05/15 11:55:08;;;;;;;0.30;0.30;;;;;;;;;;4984625;28;20042;-74
2021/05/15 11:57:33;;;;;;;0.30;0.30;;;;;;;;;;4997919;28;20049;-74
2021/05/15 12:00:08;;;;;;;0.30;0.30;;;;;;;;;;4985116;28;20065;-75
2021/05/15 12:02:33;;;;;;;0.30;0.30;;;;;;;;;;4986492;28;20742;-75
2021/05/15 12:05:01;;;;;;;0.30;0.30;;;;;;;;;;4986452;28;20031;-75
2021/05/15 12:07:26;;;;;;;0.30;0.30;;;;;;;;;;4986762;28;20042;-75
2021/05/15 12:09:51;;;;;;;0.30;0.30;;;;;;;;;;5002703;28;20083;-76
2021/05/15 12:12:17;;;;;;;0.30;0.30;;;;;;;;;;5003442;28;20038;-74
2021/05/15 12:14:43;;;;;;;0.35;0.35;;;;;;;;;;5005432;28;20034;-76
2021/05/15 12:17:10;;;;;;;0.40;0.40;;;;;;;;;;4987354;28;20044;-75
2021/05/15 12:19:35;;;;;;;0.40;0.40;;;;;;;;;;5010945;28;20095;-76
2021/05/15 12:22:04;;;;;;;0.30;0.30;;;;;;;;;;4996792;28;20396;-74
2021/05/15 12:24:30;;;;;;;0.20;0.20;;;;;;;;;;4992951;28;20168;-76
2021/05/15 12:27:04;;;;;;;0.28;0.28;;;;;;;;;;4985488;28;20133;-76
2021/05/15 12:29:30;;;;;;;0.22;0.22;;;;;;;;;;4983127;28;20042;-77
2021/05/15 12:31:55;;;;;;;0.20;0.20;;;;;;;;;;4992828;28;20038;-74
2021/05/15 12:34:20;;;;;;;0.20;0.20;;;;;;;;;;4984721;28;20039;-76
2021/05/15 12:36:45;;;;;;;0.20;0.20;;;;;;;;;;4983951;28;20049;-74
2021/05/15 12:39:11;;;;;;;0.20;0.20;;;;;;;;;;4986532;28;20307;-75
2021/05/15 12:41:38;;;;;;;0.20;0.20;;;;;;;;;;4985500;28;20046;-74
2021/05/15 12:44:04;;;;;;;0.20;0.20;;;;;;;;;;4982815;28;20145;-75
2021/05/15 12:46:31;;;;;;;0.20;0.20;;;;;;;;;;5002573;28;20169;-76
2021/05/15 12:48:58;;;;;;;0.20;0.20;;;;;;;;;;5011582;28;20033;-76
2021/05/15 12:51:33;;;;;;;0.20;0.20;;;;;;;;;;5026353;28;20068;-75
2021/05/15 12:54:10;;;;;;;0.10;0.10;;;;;;;;;;4983279;28;20053;-76
2021/05/15 12:56:36;;;;;;;0.20;0.20;;;;;;;;;;4985743;28;20096;-74
2021/05/15 12:59:01;;;;;;;0.20;0.20;;;;;;;;;;4984165;28;20129;-76
2021/05/15 13:01:26;;;;;;;0.30;0.30;;;;;;;;;;4986397;28;20177;-75
2021/05/15 13:03:53;;;;;;;0.20;0.20;;;;;;;;;;5015759;28;20617;-77
2021/05/15 13:06:21;;;;;;;0.10;0.10;;;;;;;;;;4983646;28;20045;-76
2021/05/15 13:08:53;;;;;;;0.10;0.10;;;;;;;;;;4983720;28;20038;-75
2021/05/15 13:11:19;;;;;;;0.20;0.20;;;;;;;;;;4984456;28;20042;-75
2021/05/15 13:13:46;;;;;;;0.10;0.10;;;;;;;;;;4987269;28;20049;-74
2021/05/15 13:16:13;;;;;;;0.17;0.17;;;;;;;;;;5007586;28;20041;-76
2021/05/15 13:18:39;;;;;;;0.17;0.17;;;;;;;;;;4992420;28;20104;-75
2021/05/15 13:21:05;;;;;;;0.03;0.03;;;;;;;;;;5000091;28;20546;-76
2021/05/15 13:23:31;;;;;;;0.07;0.07;;;;;;;;;;4992726;28;20042;-75
2021/05/15 13:25:58;;;;;;;0.10;0.10;;;;;;;;;;4998523;28;20183;-77
2021/05/15 13:28:23;;;;;;;0.10;0.10;;;;;;;;;;5003214;28;20741;-75
2021/05/15 13:30:49;;;;;;;0.03;0.03;;;;;;;;;;5031140;28;20156;-74
2021/05/15 13:33:16;;;;;;;0.10;0.10;;;;;;;;;;5008150;28;20038;-75
2021/05/15 13:35:42;;;;;;;0.13;0.13;;;;;;;;;;5005713;28;20042;-75
2021/05/15 13:38:07;;;;;;;0.10;0.10;;;;;;;;;;5007090;28;20458;-76
2021/05/15 13:40:33;;;;;;;0.20;0.20;;;;;;;;;;5021433;28;20564;-75
2021/05/15 13:43:00;;;;;;;0.20;0.20;;;;;;;;;;4982999;28;20102;-72
2021/05/15 13:45:25;;;;;;;0.15;0.15;;;;;;;;;;4976293;28;20046;-72
2021/05/15 13:47:52;;;;;;;0.20;0.20;;;;;;;;;;4984104;28;20445;-72
2021/05/15 13:50:18;;;;;;;0.20;0.20;;;;;;;;;;4988297;28;20034;-73
2021/05/15 13:52:43;;;;;;;0.20;0.20;;;;;;;;;;4985143;28;20030;-74
2021/05/15 13:55:08;;;;;;;0.20;0.20;;;;;;;;;;4988636;28;20097;-73
2021/05/15 13:57:34;;;;;;;0.20;0.20;;;;;;;;;;4975324;28;20118;-73
2021/05/15 13:59:59;;;;;;;0.20;0.20;;;;;;;;;;4987938;28;20614;-73
2021/05/15 14:02:24;;;;;;;0.20;0.20;;;;;;;;;;4999766;28;20289;-71
2021/05/15 14:04:49;;;;;;;0.20;0.20;;;;;;;;;;5021077;28;20504;-75
2021/05/15 14:07:15;;;;;;;0.20;0.20;;;;;;;;;;4981857;28;20042;-76
2021/05/15 14:09:40;;;;;;;0.20;0.20;;;;;;;;;;4988084;28;20034;-77
2021/05/15 14:12:05;;;;;;;0.20;0.20;;;;;;;;;;4986775;28;20552;-75
2021/05/15 14:14:30;;;;;;;0.20;0.20;;;;;;;;;;4988511;28;20475;-74
2021/05/15 14:16:56;;;;;;;0.20;0.20;;;;;;;;;;4972097;28;20066;-75
2021/05/15 14:19:21;;;;;;;0.20;0.20;;;;;;;;;;4987445;28;20038;-75
2021/05/15 14:21:46;;;;;;;0.20;0.20;;;;;;;;;;4981567;28;20292;-72
2021/05/15 14:24:12;;;;;;;0.20;0.20;;;;;;;;;;5001943;28;20215;-74
2021/05/15 14:26:37;;;;;;;0.20;0.20;;;;;;;;;;5000876;28;20039;-74
2021/05/15 14:29:02;;;;;;;0.20;0.20;;;;;;;;;;4985740;28;20050;-74
2021/05/15 14:31:27;;;;;;;0.32;0.32;;;;;;;;;;4982809;28;20437;-75
2021/05/15 14:33:53;;;;;;;0.22;0.22;;;;;;;;;;4966322;28;20050;-73
2021/05/15 14:36:18;;;;;;;0.20;0.20;;;;;;;;;;4991231;28;20042;-72
2021/05/15 14:38:43;;;;;;;0.30;0.30;;;;;;;;;;4999568;28;20120;-74
2021/05/15 14:41:11;;;;;;;0.20;0.20;;;;;;;;;;4979885;28;20050;-73
2021/05/15 14:43:36;;;;;;;0.20;0.20;;;;;;;;;;4968946;28;20074;-74
2021/05/15 14:46:01;;;;;;;0.20;0.20;;;;;;;;;;4966095;28;20050;-74